createdAt,value
2023-02-06T00:01:39.245Z,-4.83
2023-02-06T00:04:07.234Z,-4.83
2023-02-06T00:06:35.473Z,-4.84
2023-02-06T00:09:04.558Z,-4.85
2023-02-06T00:11:33.203Z,-4.85
2023-02-06T00:14:01.582Z,-4.86
2023-02-06T00:16:32.056Z,-4.86
2023-02-06T00:19:01.136Z,-4.85
2023-02-06T00:21:29.956Z,-4.85
2023-02-06T00:24:00.669Z,-4.84
2023-02-06T00:26:29.380Z,-4.82
2023-02-06T00:28:57.488Z,-4.81
2023-02-06T00:31:25.882Z,-4.81
2023-02-06T00:33:53.874Z,-4.81
2023-02-06T00:36:21.782Z,-4.81
2023-02-06T00:38:49.718Z,-4.80
2023-02-06T00:41:17.661Z,-4.79
2023-02-06T00:43:45.809Z,-4.79
2023-02-06T00:46:13.747Z,-4.79
2023-02-06T00:48:41.903Z,-4.79
2023-02-06T00:51:09.850Z,-4.79
2023-02-06T00:53:38.970Z,-4.79
2023-02-06T00:56:07.302Z,-4.78
2023-02-06T00:58:35.236Z,-4.77
2023-02-06T01:01:04.653Z,-4.77
2023-02-06T01:03:32.583Z,-4.77
2023-02-06T01:06:00.484Z,-4.77
2023-02-06T01:08:28.515Z,-4.76
2023-02-06T01:10:56.416Z,-4.77
2023-02-06T01:13:24.336Z,-4.77
2023-02-06T01:15:52.447Z,-4.77
2023-02-06T01:18:23.214Z,-4.78
2023-02-06T01:20:51.525Z,-4.77
2023-02-06T01:23:19.512Z,-4.77
2023-02-06T01:25:47.388Z,-4.77
2023-02-06T01:28:17.483Z,-4.79
2023-02-06T01:30:45.507Z,-4.79
2023-02-06T01:33:13.507Z,-4.80
2023-02-06T01:35:41.388Z,-4.79
2023-02-06T01:38:09.999Z,-4.79
2023-02-06T01:40:38.878Z,-4.79
2023-02-06T01:43:17.131Z,-4.79
2023-02-06T01:45:47.156Z,-4.79
2023-02-06T01:48:20.195Z,-4.81
2023-02-06T01:50:54.303Z,-4.84
2023-02-06T01:53:24.744Z,-4.85
2023-02-06T01:55:56.484Z,-4.86
2023-02-06T01:58:30.203Z,-4.87
2023-02-06T02:01:00.265Z,-4.89
2023-02-06T02:03:32.099Z,-4.92
2023-02-06T02:06:07.204Z,-4.93
2023-02-06T02:08:45.252Z,-4.95
2023-02-06T02:11:23.305Z,-4.96
2023-02-06T02:13:53.720Z,-4.96
2023-02-06T02:16:45.319Z,-4.97
2023-02-06T02:19:59.519Z,-4.99
2023-02-06T02:22:49.472Z,-5.00
2023-02-06T02:25:36.316Z,-5.01
2023-02-06T02:28:22.573Z,-5.03
2023-02-06T02:31:20.147Z,-5.06
2023-02-06T02:34:11.450Z,-5.08
2023-02-06T02:37:14.805Z,-5.10
2023-02-06T02:39:43.458Z,-5.12
2023-02-06T02:42:29.993Z,-5.14
2023-02-06T02:45:13.109Z,-5.14
2023-02-06T02:48:14.356Z,-5.15
2023-02-06T02:50:43.254Z,-5.17
2023-02-06T02:53:13.239Z,-5.18
2023-02-06T02:55:41.529Z,-5.21
2023-02-06T02:58:13.286Z,-5.24
2023-02-06T03:01:00.830Z,-5.29
2023-02-06T03:03:31.937Z,-5.36
2023-02-06T03:06:21.513Z,-5.41
2023-02-06T03:09:01.483Z,-5.46
2023-02-06T03:11:30.157Z,-5.51
2023-02-06T03:14:06.325Z,-5.55
2023-02-06T03:16:42.698Z,-5.61
2023-02-06T03:19:21.611Z,-5.67
2023-02-06T03:21:50.587Z,-5.74
2023-02-06T03:24:26.483Z,-5.80
2023-02-06T03:27:01.762Z,-5.86
2023-02-06T03:29:33.865Z,-5.92
2023-02-06T03:32:28.584Z,-5.98
2023-02-06T03:35:02.589Z,-6.06
2023-02-06T03:37:31.144Z,-6.10
2023-02-06T03:40:01.614Z,-6.15
2023-02-06T03:42:30.985Z,-6.19
2023-02-06T03:45:11.132Z,-6.21
2023-02-06T03:47:40.194Z,-6.26
2023-02-06T03:50:10.543Z,-6.32
2023-02-06T03:52:43.775Z,-6.39
2023-02-06T03:55:19.804Z,-6.47
2023-02-06T03:57:59.215Z,-6.52
2023-02-06T04:00:29.135Z,-6.55
2023-02-06T04:02:58.686Z,-6.59
2023-02-06T04:05:28.171Z,-6.65
2023-02-06T04:07:56.189Z,-6.68
2023-02-06T04:10:26.305Z,-6.70
2023-02-06T04:12:54.598Z,-6.73
2023-02-06T04:15:23.187Z,-6.76
2023-02-06T04:18:00.013Z,-6.79
2023-02-06T04:20:29.842Z,-6.81
2023-02-06T04:22:58.770Z,-6.85
2023-02-06T04:25:26.817Z,-6.88
2023-02-06T04:27:54.784Z,-6.92
2023-02-06T04:30:22.709Z,-6.96
2023-02-06T04:32:51.472Z,-7.01
2023-02-06T04:35:19.444Z,-7.04
2023-02-06T04:37:47.271Z,-7.07
2023-02-06T04:40:15.259Z,-7.10
2023-02-06T04:42:43.113Z,-7.13
2023-02-06T04:45:11.229Z,-7.16
2023-02-06T04:47:39.653Z,-7.17
2023-02-06T04:50:08.032Z,-7.18
2023-02-06T04:52:36.028Z,-7.20
2023-02-06T04:55:04.052Z,-7.20
2023-02-06T04:57:32.374Z,-7.20
2023-02-06T05:00:00.296Z,-7.18
2023-02-06T05:02:28.397Z,-7.17
2023-02-06T05:04:56.383Z,-7.17
2023-02-06T05:07:24.269Z,-7.15
2023-02-06T05:09:52.118Z,-7.13
2023-02-06T05:12:20.117Z,-7.12
2023-02-06T05:14:48.025Z,-7.11
2023-02-06T05:17:15.994Z,-7.10
2023-02-06T05:19:43.879Z,-7.09
2023-02-06T05:22:11.790Z,-7.10
2023-02-06T05:24:39.639Z,-7.10
2023-02-06T05:27:07.805Z,-7.10
2023-02-06T05:29:35.741Z,-7.09
2023-02-06T05:32:03.894Z,-7.10
2023-02-06T05:34:31.769Z,-7.12
2023-02-06T05:36:59.757Z,-7.15
2023-02-06T05:39:27.803Z,-7.20
2023-02-06T05:41:55.739Z,-7.24
2023-02-06T05:44:23.698Z,-7.26
2023-02-06T05:46:51.619Z,-7.30
2023-02-06T05:49:19.580Z,-7.34
2023-02-06T05:51:47.613Z,-7.38
2023-02-06T05:54:15.739Z,-7.42
2023-02-06T05:56:44.796Z,-7.48
2023-02-06T05:59:12.746Z,-7.53
2023-02-06T06:01:40.652Z,-7.49
2023-02-06T06:04:08.697Z,-7.51
2023-02-06T06:06:36.908Z,-7.55
2023-02-06T06:09:05.140Z,-7.57
2023-02-06T06:11:33.121Z,-7.60
2023-02-06T06:14:01.072Z,-7.62
2023-02-06T06:16:28.993Z,-7.62
2023-02-06T06:18:56.888Z,-7.61
2023-02-06T06:21:24.769Z,-7.59
2023-02-06T06:23:52.827Z,-7.54
2023-02-06T06:26:20.898Z,-7.48
2023-02-06T06:28:48.798Z,-7.41
2023-02-06T06:31:16.742Z,-7.36
2023-02-06T06:33:45.024Z,-7.29
2023-02-06T06:36:14.496Z,-7.24
2023-02-06T06:38:42.575Z,-7.20
2023-02-06T06:41:10.656Z,-7.15
2023-02-06T06:43:38.624Z,-7.11
2023-02-06T06:46:06.849Z,-7.07
2023-02-06T06:48:34.887Z,-7.04
2023-02-06T06:51:02.797Z,-7.01
2023-02-06T06:53:30.697Z,-6.95
2023-02-06T06:56:05.840Z,-6.89
2023-02-06T06:58:34.587Z,-6.80
2023-02-06T07:01:02.513Z,-6.68
2023-02-06T07:03:30.955Z,-6.55
2023-02-06T07:05:58.913Z,-6.40
2023-02-06T07:08:26.779Z,-6.26
2023-02-06T07:10:54.630Z,-6.14
2023-02-06T07:13:22.659Z,-6.02
2023-02-06T07:15:50.565Z,-5.93
2023-02-06T07:18:18.405Z,-5.86
2023-02-06T07:20:46.404Z,-5.77
2023-02-06T07:23:14.331Z,-5.66
2023-02-06T07:25:42.243Z,-5.53
2023-02-06T07:28:10.273Z,-5.40
2023-02-06T07:30:38.436Z,-5.27
2023-02-06T07:33:06.648Z,-5.15
2023-02-06T07:35:34.710Z,-5.05
2023-02-06T07:38:02.901Z,-4.93
2023-02-06T07:40:44.016Z,-4.79
2023-02-06T07:43:13.926Z,-4.61
2023-02-06T07:45:42.819Z,-4.42
2023-02-06T07:48:11.485Z,-4.26
2023-02-06T07:50:39.524Z,-4.12
2023-02-06T07:53:07.655Z,-4.02
2023-02-06T07:55:37.630Z,-3.94
2023-02-06T07:58:05.931Z,-3.89
2023-02-06T08:00:33.968Z,-3.85
2023-02-06T08:03:01.835Z,-3.77
2023-02-06T08:05:29.798Z,-3.69
2023-02-06T08:07:58.224Z,-3.61
2023-02-06T08:10:26.507Z,-3.55
2023-02-06T08:12:54.542Z,-3.50
2023-02-06T08:15:22.975Z,-3.45
2023-02-06T08:17:50.932Z,-3.42
2023-02-06T08:20:18.933Z,-3.37
2023-02-06T08:22:46.851Z,-3.29
2023-02-06T08:25:14.881Z,-3.20
2023-02-06T08:27:42.815Z,-3.10
2023-02-06T08:30:12.376Z,-3.00
2023-02-06T08:32:40.551Z,-2.89
2023-02-06T08:35:10.611Z,-2.79
2023-02-06T08:37:38.565Z,-2.68
2023-02-06T08:40:07.856Z,-2.58
2023-02-06T08:42:35.763Z,-2.51
2023-02-06T08:45:03.910Z,-2.45
2023-02-06T08:47:31.785Z,-2.40
2023-02-06T08:50:01.568Z,-2.37
2023-02-06T08:52:31.108Z,-2.32
2023-02-06T08:54:58.952Z,-2.30
2023-02-06T08:57:26.910Z,-2.29
2023-02-06T08:59:54.747Z,-2.26
2023-02-06T09:02:22.818Z,-2.27
2023-02-06T09:04:51.018Z,-2.27
2023-02-06T09:07:18.926Z,-2.25
2023-02-06T09:09:47.103Z,-2.24
2023-02-06T09:12:15.670Z,-2.22
2023-02-06T09:14:43.602Z,-2.18
2023-02-06T09:17:11.495Z,-2.15
2023-02-06T09:19:39.618Z,-2.12
2023-02-06T09:22:07.561Z,-2.05
2023-02-06T09:24:35.443Z,-1.89
2023-02-06T09:27:03.418Z,-1.74
2023-02-06T09:29:34.066Z,-1.57
2023-02-06T09:32:02.305Z,-1.34
2023-02-06T09:34:30.785Z,-1.01
2023-02-06T09:37:01.396Z,-0.63
2023-02-06T09:39:30.539Z,-0.18
2023-02-06T09:42:11.555Z,0.29
2023-02-06T09:44:47.979Z,0.84
2023-02-06T09:47:27.092Z,1.37
2023-02-06T09:49:59.543Z,1.87
2023-02-06T09:52:33.140Z,2.34
2023-02-06T09:55:15.767Z,2.76
2023-02-06T09:58:06.704Z,3.11
2023-02-06T10:00:37.904Z,3.41
2023-02-06T10:03:27.099Z,3.60
2023-02-06T10:06:29.427Z,3.79
2023-02-06T10:09:03.194Z,4.16
2023-02-06T10:11:50.026Z,4.22
2023-02-06T10:14:18.000Z,3.89
2023-02-06T10:17:08.727Z,3.58
2023-02-06T10:19:49.180Z,3.61
2023-02-06T10:22:24.361Z,4.06
2023-02-06T10:25:11.578Z,4.58
2023-02-06T10:27:42.930Z,5.17
2023-02-06T10:30:20.520Z,5.83
2023-02-06T10:32:57.078Z,6.31
2023-02-06T10:36:03.186Z,6.13
2023-02-06T10:39:06.451Z,5.55
2023-02-06T10:42:10.990Z,4.96
2023-02-06T10:44:51.456Z,4.91
2023-02-06T10:47:37.433Z,4.82
2023-02-06T10:50:25.839Z,4.61
2023-02-06T10:52:57.073Z,4.45
2023-02-06T10:55:31.751Z,4.22
2023-02-06T10:58:13.458Z,4.06
2023-02-06T11:00:44.084Z,3.96
2023-02-06T11:03:20.606Z,3.81
2023-02-06T11:05:48.521Z,3.62
2023-02-06T11:08:20.891Z,3.30
2023-02-06T11:10:49.039Z,2.92
2023-02-06T11:13:48.699Z,2.72
2023-02-06T11:16:24.676Z,2.53
2023-02-06T11:18:55.572Z,2.41
2023-02-06T11:21:41.664Z,2.34
2023-02-06T11:24:12.188Z,2.39
2023-02-06T11:26:51.587Z,3.19
2023-02-06T11:29:32.399Z,4.75
2023-02-06T11:32:07.098Z,5.83
2023-02-06T11:34:54.683Z,6.49
2023-02-06T11:37:51.971Z,7.46
2023-02-06T11:40:20.004Z,8.25
2023-02-06T11:42:51.263Z,8.59
2023-02-06T11:45:32.142Z,9.68
2023-02-06T11:48:01.224Z,11.10
2023-02-06T11:50:30.915Z,12.33
2023-02-06T11:53:08.268Z,12.96
2023-02-06T11:55:38.618Z,13.76
2023-02-06T11:58:09.647Z,14.48
2023-02-06T12:00:40.239Z,14.72
2023-02-06T12:03:27.512Z,14.83
2023-02-06T12:06:11.712Z,14.95
2023-02-06T12:08:51.063Z,14.39
2023-02-06T12:11:49.484Z,14.26
2023-02-06T12:14:23.084Z,13.29
2023-02-06T12:16:52.645Z,12.10
2023-02-06T12:19:32.297Z,11.36
2023-02-06T12:22:12.463Z,10.20
2023-02-06T12:24:48.307Z,8.55
2023-02-06T12:27:38.893Z,7.16
2023-02-06T12:30:29.356Z,6.68
2023-02-06T12:33:07.296Z,6.59
2023-02-06T12:35:42.714Z,7.69
2023-02-06T12:38:19.120Z,9.36
2023-02-06T12:40:51.115Z,10.30
2023-02-06T12:43:20.149Z,10.52
2023-02-06T12:45:50.711Z,9.72
2023-02-06T12:48:21.857Z,9.33
2023-02-06T12:51:12.830Z,9.49
2023-02-06T12:53:49.172Z,9.61
2023-02-06T12:56:45.592Z,9.64
2023-02-06T12:59:22.263Z,9.43
2023-02-06T13:01:57.255Z,8.98
2023-02-06T13:04:30.431Z,8.76
2023-02-06T13:07:09.422Z,8.62
2023-02-06T13:09:48.221Z,8.23
2023-02-06T13:12:21.992Z,8.03
2023-02-06T13:15:03.446Z,7.70
2023-02-06T13:17:35.806Z,6.96
2023-02-06T13:20:15.764Z,6.13
2023-02-06T13:22:45.416Z,5.26
2023-02-06T13:25:31.909Z,4.37
2023-02-06T13:28:02.147Z,3.46
2023-02-06T13:30:30.145Z,2.80
2023-02-06T13:33:11.010Z,2.24
2023-02-06T13:35:56.380Z,1.68
2023-02-06T13:38:24.318Z,1.13
2023-02-06T13:41:14.184Z,0.75
2023-02-06T13:43:55.779Z,0.38
2023-02-06T13:47:06.032Z,0.04
2023-02-06T13:50:05.022Z,-0.36
2023-02-06T13:52:54.400Z,-0.61
2023-02-06T13:56:00.784Z,-0.78
2023-02-06T13:58:58.004Z,-0.94
2023-02-06T14:01:30.114Z,-1.05
2023-02-06T14:03:59.004Z,-1.16
2023-02-06T14:06:39.614Z,-1.29
2023-02-06T14:09:48.744Z,-1.41
2023-02-06T14:12:53.536Z,-1.52
2023-02-06T14:15:39.303Z,-1.66
2023-02-06T14:18:13.662Z,-1.78
2023-02-06T14:20:51.945Z,-1.88
2023-02-06T14:23:32.007Z,-1.96
2023-02-06T14:26:08.351Z,-2.04
2023-02-06T14:29:05.011Z,-2.11
2023-02-06T14:32:10.624Z,-2.20
2023-02-06T14:35:03.401Z,-2.33
2023-02-06T14:37:44.992Z,-2.44
2023-02-06T14:40:27.338Z,-2.54
2023-02-06T14:43:02.599Z,-2.64
2023-02-06T14:45:41.768Z,-2.73
2023-02-06T14:48:23.861Z,-2.78
2023-02-06T14:50:56.611Z,-2.81
2023-02-06T14:53:30.273Z,-2.82
2023-02-06T14:56:17.564Z,-2.84
2023-02-06T14:58:46.330Z,-2.87
2023-02-06T15:01:17.373Z,-2.93
2023-02-06T15:03:48.406Z,-2.99
2023-02-06T15:06:31.239Z,-3.05
2023-02-06T15:08:59.763Z,-3.11
2023-02-06T15:11:30.388Z,-3.17
2023-02-06T15:14:02.257Z,-3.24
2023-02-06T15:16:30.694Z,-3.31
2023-02-06T15:19:24.874Z,-3.39
2023-02-06T15:22:01.900Z,-3.42
2023-02-06T15:24:56.554Z,-3.33
2023-02-06T15:27:30.551Z,-3.30
2023-02-06T15:29:59.661Z,-3.30
2023-02-06T15:32:38.093Z,-3.32
2023-02-06T15:35:40.448Z,-3.35
2023-02-06T15:38:15.570Z,-3.41
2023-02-06T15:40:49.249Z,-3.45
2023-02-06T15:43:20.217Z,-3.50
2023-02-06T15:45:50.636Z,-3.55
2023-02-06T15:48:38.475Z,-3.62
2023-02-06T15:51:21.602Z,-3.72
2023-02-06T15:53:51.725Z,-3.81
2023-02-06T15:56:30.194Z,-3.94
2023-02-06T15:59:04.402Z,-4.06
2023-02-06T16:01:37.266Z,-4.17
2023-02-06T16:04:32.109Z,-4.28
2023-02-06T16:07:27.302Z,-4.40
2023-02-06T16:10:04.802Z,-4.52
2023-02-06T16:12:35.794Z,-4.61
2023-02-06T16:15:21.173Z,-4.69
2023-02-06T16:17:49.197Z,-4.77
2023-02-06T16:20:29.334Z,-4.83
2023-02-06T16:23:17.802Z,-4.91
2023-02-06T16:26:06.093Z,-4.96
2023-02-06T16:28:49.675Z,-5.03
2023-02-06T16:31:17.676Z,-5.10
2023-02-06T16:33:49.462Z,-5.14
2023-02-06T16:36:19.245Z,-5.20
2023-02-06T16:38:54.224Z,-5.25
2023-02-06T16:41:34.546Z,-5.30
2023-02-06T16:44:04.818Z,-5.36
2023-02-06T16:46:32.928Z,-5.43
2023-02-06T16:49:01.211Z,-5.50
2023-02-06T16:51:31.968Z,-5.57
2023-02-06T16:54:01.998Z,-5.61
2023-02-06T16:56:31.396Z,-5.65
2023-02-06T16:58:59.422Z,-5.67
2023-02-06T17:04:28.943Z,-5.72
2023-02-06T17:06:57.446Z,-5.76
2023-02-06T17:09:25.600Z,-5.83
2023-02-06T17:11:54.171Z,-5.90
2023-02-06T17:14:23.247Z,-5.97
2023-02-06T17:16:51.263Z,-6.04
2023-02-06T17:19:19.629Z,-6.08
2023-02-06T17:24:57.180Z,-6.25
2023-02-06T17:27:25.484Z,-6.33
2023-02-06T17:29:53.587Z,-6.41
2023-02-06T17:32:22.218Z,-6.46
2023-02-06T17:34:52.500Z,-6.50
2023-02-06T17:37:22.266Z,-6.54
2023-02-06T17:39:52.180Z,-6.56
2023-02-06T17:42:21.278Z,-6.60
2023-02-06T17:44:49.489Z,-6.65
2023-02-06T17:47:17.852Z,-6.73
2023-02-06T17:49:45.907Z,-6.79
2023-02-06T17:52:14.139Z,-6.85
2023-02-06T17:54:42.834Z,-6.87
2023-02-06T17:57:11.606Z,-6.88
2023-02-06T17:59:39.828Z,-6.91
2023-02-06T18:02:13.574Z,-6.94
2023-02-06T18:04:42.038Z,-6.95
2023-02-06T18:07:10.270Z,-6.98
2023-02-06T18:09:39.576Z,-7.00
2023-02-06T18:12:09.124Z,-7.02
2023-02-06T18:14:37.271Z,-7.04
2023-02-06T18:17:05.681Z,-7.07
2023-02-06T18:19:34.117Z,-7.11
2023-02-06T18:22:02.105Z,-7.16
2023-02-06T18:24:30.201Z,-7.22
2023-02-06T18:26:58.372Z,-7.28
2023-02-06T18:29:28.127Z,-7.34
2023-02-06T18:32:01.057Z,-7.36
2023-02-06T18:37:37.951Z,-7.38
2023-02-06T18:40:06.415Z,-7.41
2023-02-06T18:42:34.416Z,-7.45
2023-02-06T18:45:04.231Z,-7.47
2023-02-06T18:47:32.553Z,-7.48
2023-02-06T18:50:00.588Z,-7.48
2023-02-06T18:52:29.263Z,-7.49
2023-02-06T18:54:57.351Z,-7.50
2023-02-06T18:57:25.627Z,-7.53
2023-02-06T18:59:53.846Z,-7.55
2023-02-06T19:02:21.907Z,-7.58
2023-02-06T19:04:49.886Z,-7.58
2023-02-06T19:07:18.388Z,-7.12
2023-02-06T19:09:48.048Z,-6.67
2023-02-06T19:12:16.308Z,-6.82
2023-02-06T19:14:44.658Z,-7.10
2023-02-06T19:17:12.924Z,-7.31
2023-02-06T19:19:40.924Z,-7.46
2023-02-06T19:22:09.162Z,-7.58
2023-02-06T19:24:37.545Z,-7.69
2023-02-06T19:27:05.630Z,-7.81
2023-02-06T19:32:28.485Z,-7.97
2023-02-06T19:34:56.493Z,-7.99
2023-02-06T19:37:25.127Z,-8.03
2023-02-06T19:39:54.093Z,-8.06
2023-02-06T19:42:22.043Z,-8.09
2023-02-06T19:44:54.336Z,-8.12
2023-02-06T19:47:24.225Z,-8.15
2023-02-06T19:49:53.083Z,-8.18
2023-02-06T19:52:21.313Z,-8.08
2023-02-06T19:54:49.361Z,-7.53
2023-02-06T19:57:17.665Z,-7.06
2023-02-06T19:59:45.808Z,-6.83
2023-02-06T20:02:16.869Z,-7.06
2023-02-06T20:04:44.993Z,-6.93
2023-02-06T20:07:13.403Z,-6.80
2023-02-06T20:09:41.495Z,-7.11
2023-02-06T20:12:11.235Z,-7.45
2023-02-06T20:14:39.407Z,-7.72
2023-02-06T20:17:08.598Z,-7.91
2023-02-06T20:19:36.864Z,-8.08
2023-02-06T20:22:05.226Z,-8.21
2023-02-06T20:24:34.085Z,-8.32
2023-02-06T20:27:03.993Z,-8.41
2023-02-06T20:29:36.017Z,-8.50
2023-02-06T20:32:05.572Z,-8.57
2023-02-06T20:34:34.996Z,-8.61
2023-02-06T20:37:04.527Z,-8.11
2023-02-06T20:39:33.811Z,-7.52
2023-02-06T20:42:02.110Z,-7.05
2023-02-06T20:44:31.085Z,-6.66
2023-02-06T20:46:59.382Z,-6.77
2023-02-06T20:49:28.878Z,-7.16
2023-02-06T20:51:57.246Z,-7.50
2023-02-06T20:54:26.003Z,-7.76
2023-02-06T20:56:54.235Z,-7.98
2023-02-06T20:59:22.882Z,-8.17
2023-02-06T21:01:51.390Z,-8.36
2023-02-06T21:04:20.193Z,-8.52
2023-02-06T21:06:48.658Z,-8.65
2023-02-06T21:09:17.853Z,-8.74
2023-02-06T21:11:48.649Z,-8.71
2023-02-06T21:14:18.308Z,-8.30
2023-02-06T21:16:47.125Z,-8.40
2023-02-06T21:19:19.488Z,-8.67
2023-02-06T21:21:48.292Z,-8.86
2023-02-06T21:24:17.336Z,-8.70
2023-02-06T21:26:45.378Z,-8.75
2023-02-06T21:29:14.790Z,-8.96
2023-02-06T21:31:43.588Z,-9.13
2023-02-06T21:34:20.755Z,-9.25
2023-02-06T21:36:49.134Z,-9.33
2023-02-06T21:39:23.038Z,-9.38
2023-02-06T21:41:51.006Z,-9.44
2023-02-06T21:44:19.793Z,-9.50
2023-02-06T21:46:47.648Z,-9.53
2023-02-06T21:49:15.628Z,-9.56
2023-02-06T21:51:43.557Z,-9.58
2023-02-06T21:54:11.494Z,-9.58
2023-02-06T21:56:39.499Z,-9.58
2023-02-06T21:59:09.507Z,-9.45
2023-02-06T22:01:37.817Z,-9.26
2023-02-06T22:04:07.125Z,-9.34
2023-02-06T22:06:35.216Z,-9.45
2023-02-06T22:09:05.571Z,-9.54
2023-02-06T22:11:36.415Z,-9.57
2023-02-06T22:14:11.698Z,-9.14
2023-02-06T22:16:40.347Z,-8.62
2023-02-06T22:19:09.794Z,-8.26
2023-02-06T22:21:37.705Z,-7.88
2023-02-06T22:24:07.293Z,-7.52
2023-02-06T22:26:36.920Z,-7.18
2023-02-06T22:29:11.676Z,-6.91
2023-02-06T22:31:40.974Z,-6.68
2023-02-06T22:34:20.829Z,-6.52
2023-02-06T22:36:49.595Z,-6.41
2023-02-06T22:39:17.903Z,-6.36
2023-02-06T22:41:46.612Z,-6.30
2023-02-06T22:44:16.256Z,-6.24
2023-02-06T22:46:50.398Z,-6.17
2023-02-06T22:49:20.134Z,-6.10
2023-02-06T22:51:48.091Z,-6.06
2023-02-06T22:54:16.162Z,-6.04
2023-02-06T22:56:44.936Z,-6.00
2023-02-06T22:59:21.725Z,-6.00
2023-02-06T23:01:52.564Z,-6.00
2023-02-06T23:04:23.801Z,-6.02
2023-02-06T23:06:52.912Z,-6.08
2023-02-06T23:09:24.137Z,-6.13
2023-02-06T23:11:53.075Z,-6.20
2023-02-06T23:14:21.220Z,-6.20
2023-02-06T23:16:49.480Z,-6.22
2023-02-06T23:19:19.420Z,-6.25
2023-02-06T23:21:49.571Z,-6.25
2023-02-06T23:24:18.847Z,-6.29
2023-02-06T23:26:49.237Z,-6.32
2023-02-06T23:29:18.877Z,-6.34
2023-02-06T23:31:47.983Z,-6.39
2023-02-06T23:34:17.297Z,-6.40
2023-02-06T23:36:46.490Z,-6.48
2023-02-06T23:39:15.207Z,-6.50
2023-02-06T23:41:43.146Z,-6.53
2023-02-06T23:44:11.221Z,-6.56
2023-02-06T23:46:40.434Z,-6.61
2023-02-06T23:49:08.861Z,-6.62
2023-02-06T23:51:37.393Z,-6.65
2023-02-06T23:54:07.027Z,-6.68
2023-02-06T23:56:35.546Z,-6.69
2023-02-06T23:59:05.123Z,-6.71
